Heinz Schepers — V2OM7 — position and weather

sailwx.info

Track history (hours):
 
Tides and Currents Weather Stations Pressure Air Temp Water Temp Dewpoint Dewpoint Depression Visibility Wind Speed Wind Dir Waves Ship Positions

Heinz Schepers

Last reported at 2014-Oct-20 10:24 UTC. Time now 2014-Oct-20 11:20 UTC.
Position N 37°46' E 026°23'.

Length 101 m; draft 6.6 m.

Type: Cargo ship. MMSI: 304596000.

Date/timePositionNaut miles runAvg speedWind from/ knotsBaromVisibWave heightAir tempDewpointWater temp
2014-Oct-20 10:24N 37°46' E 026°23'2713.5
2014-Oct-20 08:23N 37°60' E 025°53'1113.1
2014-Oct-20 07:31N 38°06' E 025°41'1313.2
2014-Oct-20 06:33N 38°13' E 025°27'1313.0
2014-Oct-20 05:33N 38°19' E 025°13'  
2014-Oct-16 13:14N 39°31' E 023°22'4912.5
2014-Oct-16 09:20N 38°53' E 024°01'9613.7
2014-Oct-16 02:17N 38°02' E 025°46'2313.6
2014-Oct-16 00:33N 37°51' E 026°12'1413.6
2014-Oct-15 23:33N 37°45' E 026°27'1414.0
2014-Oct-15 22:33N 37°34' E 026°39'1313.4
2014-Oct-15 21:33N 37°23' E 026°48'1313.2
2014-Oct-15 20:33N 37°12' E 026°57'1313.4
2014-Oct-15 19:33N 37°01' E 027°06'1413.8
2014-Oct-15 18:33N 36°54' E 027°21'1312.5
2014-Oct-15 17:33N 36°42' E 027°19'1212.0
2014-Oct-15 16:33N 36°35' E 027°32'1413.5
2014-Oct-15 15:32N 36°30' E 027°48'25413.4
2014-Oct-14 20:33N 34°38' E 032°28'1313.3
2014-Oct-14 19:33N 34°34' E 032°43'1313.3
2014-Oct-14 18:33N 34°31' E 032°59'8 7.5
2014-Oct-14 17:33N 34°39' E 033°01'0 0.0
2014-Oct-14 11:33N 34°39' E 033°01'0 0.0
2014-Oct-14 10:33N 34°39' E 033°01'0 0.0
2014-Oct-14 09:32N 34°39' E 033°01'0 0.0
2014-Oct-14 08:10N 34°39' E 033°01'0 0.1
2014-Oct-14 07:28N 34°39' E 033°01'0 0.0
2014-Oct-14 06:28N 34°39' E 033°01'0 0.0
2014-Oct-14 05:29N 34°39' E 033°01'5 5.1
2014-Oct-14 04:33N 34°35' E 033°04'1110.8
2014-Oct-14 03:33N 34°33' E 032°51'1313.1
2014-Oct-14 02:33N 34°36' E 032°35'32412.7
2014-Oct-13 01:06N 37°20' E 026°51'713.7
2014-Oct-13 00:33N 37°27' E 026°45'1413.4
2014-Oct-12 23:30N 37°38' E 026°35'4413.6
2014-Oct-12 20:14N 38°03' E 025°48'913.5
2014-Oct-12 19:33N 38°07' E 025°38'4513.8
2014-Oct-12 16:17N 38°30' E 024°49'1113.9
2014-Oct-12 15:31N 38°36' E 024°37'  
Track history (hours):
 
Tides and Currents Weather Stations Pressure Air Temp Water Temp Dewpoint Dewpoint Depression Visibility Wind Speed Wind Dir Waves Ship Positions

Heinz Schepers

Last reported at 2014-Oct-20 10:24 UTC. Time now 2014-Oct-20 11:20 UTC.
Position N 37°46' E 026°23'.

Length 101 m; draft 6.6 m.

Type: Cargo ship. MMSI: 304596000.

Date/timePositionNaut miles runAvg speedWind from/ knotsBaromVisibWave heightAir tempDewpointWater temp
2014-Oct-20 10:24N 37°46' E 026°23'2713.5
2014-Oct-20 08:23N 37°60' E 025°53'1113.1
2014-Oct-20 07:31N 38°06' E 025°41'1313.2
2014-Oct-20 06:33N 38°13' E 025°27'1313.0
2014-Oct-20 05:33N 38°19' E 025°13'  
2014-Oct-16 13:14N 39°31' E 023°22'4912.5
2014-Oct-16 09:20N 38°53' E 024°01'9613.7
2014-Oct-16 02:17N 38°02' E 025°46'2313.6
2014-Oct-16 00:33N 37°51' E 026°12'1413.6
2014-Oct-15 23:33N 37°45' E 026°27'1414.0
2014-Oct-15 22:33N 37°34' E 026°39'1313.4
2014-Oct-15 21:33N 37°23' E 026°48'1313.2
2014-Oct-15 20:33N 37°12' E 026°57'1313.4
2014-Oct-15 19:33N 37°01' E 027°06'1413.8
2014-Oct-15 18:33N 36°54' E 027°21'1312.5
2014-Oct-15 17:33N 36°42' E 027°19'1212.0
2014-Oct-15 16:33N 36°35' E 027°32'1413.5
2014-Oct-15 15:32N 36°30' E 027°48'25413.4
2014-Oct-14 20:33N 34°38' E 032°28'1313.3
2014-Oct-14 19:33N 34°34' E 032°43'1313.3
2014-Oct-14 18:33N 34°31' E 032°59'8 7.5
2014-Oct-14 17:33N 34°39' E 033°01'0 0.0
2014-Oct-14 11:33N 34°39' E 033°01'0 0.0
2014-Oct-14 10:33N 34°39' E 033°01'0 0.0
2014-Oct-14 09:32N 34°39' E 033°01'0 0.0
2014-Oct-14 08:10N 34°39' E 033°01'0 0.1
2014-Oct-14 07:28N 34°39' E 033°01'0 0.0
2014-Oct-14 06:28N 34°39' E 033°01'0 0.0
2014-Oct-14 05:29N 34°39' E 033°01'5 5.1
2014-Oct-14 04:33N 34°35' E 033°04'1110.8
2014-Oct-14 03:33N 34°33' E 032°51'1313.1
2014-Oct-14 02:33N 34°36' E 032°35'32412.7
2014-Oct-13 01:06N 37°20' E 026°51'713.7
2014-Oct-13 00:33N 37°27' E 026°45'1413.4
2014-Oct-12 23:30N 37°38' E 026°35'4413.6
2014-Oct-12 20:14N 38°03' E 025°48'913.5
2014-Oct-12 19:33N 38°07' E 025°38'4513.8
2014-Oct-12 16:17N 38°30' E 024°49'1113.9
2014-Oct-12 15:31N 38°36' E 024°37'  

Dump ship's entire track history